createdAt,value
2019-05-30T00:06:17.444Z,11.24
2019-05-30T00:16:22.611Z,11.22
2019-05-30T00:26:27.181Z,11.24
2019-05-30T00:36:32.108Z,11.21
2019-05-30T00:46:37.035Z,11.22
2019-05-30T00:56:41.916Z,11.20
2019-05-30T01:06:46.652Z,11.16
2019-05-30T01:16:51.144Z,11.15
2019-05-30T01:26:57.065Z,11.14
2019-05-30T01:37:03.695Z,11.15
2019-05-30T01:47:10.133Z,11.12
2019-05-30T01:57:15.324Z,11.05
2019-05-30T02:07:19.756Z,11.00
2019-05-30T02:17:24.213Z,11.00
2019-05-30T02:27:28.952Z,10.99
2019-05-30T02:37:33.720Z,10.96
2019-05-30T02:47:38.213Z,10.95
2019-05-30T02:57:42.751Z,10.94
2019-05-30T03:07:47.161Z,10.91
2019-05-30T03:17:51.888Z,10.87
2019-05-30T03:27:56.951Z,10.85
2019-05-30T03:38:03.174Z,10.85
2019-05-30T03:48:12.254Z,10.84
2019-05-30T03:58:20.354Z,10.89
2019-05-30T04:08:29.223Z,10.95
2019-05-30T04:18:34.172Z,10.91
2019-05-30T04:28:38.874Z,10.97
2019-05-30T04:38:43.317Z,11.02
2019-05-30T04:48:47.797Z,11.12
2019-05-30T04:58:56.176Z,11.19
2019-05-30T05:09:01.970Z,11.32
2019-05-30T05:19:07.888Z,11.40
2019-05-30T05:29:13.998Z,11.50
2019-05-30T05:39:20.714Z,11.68
2019-05-30T05:49:25.844Z,11.79
2019-05-30T05:59:30.283Z,11.96
2019-05-30T06:09:35.852Z,12.06
2019-05-30T06:19:46.282Z,12.41
2019-05-30T06:29:46.871Z,12.86
2019-05-30T06:39:51.397Z,13.25
2019-05-30T06:49:55.961Z,13.63
2019-05-30T07:00:02.023Z,13.82
2019-05-30T07:10:07.126Z,13.87
2019-05-30T07:20:12.405Z,14.09
2019-05-30T07:30:18.399Z,14.26
2019-05-30T07:40:24.514Z,14.47
2019-05-30T07:50:30.939Z,14.94
2019-05-30T08:00:37.541Z,15.17
2019-05-30T08:10:43.278Z,15.25
2019-05-30T08:20:48.039Z,15.16
2019-05-30T08:30:56.703Z,15.13
2019-05-30T08:40:59.148Z,15.24
2019-05-30T08:51:03.876Z,15.51
2019-05-30T09:01:08.755Z,15.77
2019-05-30T09:11:13.617Z,16.01
2019-05-30T09:21:18.308Z,16.12
2019-05-30T09:31:22.748Z,16.25
2019-05-30T09:41:27.447Z,16.41
2019-05-30T09:51:32.073Z,16.63
2019-05-30T10:01:36.963Z,16.71
2019-05-30T10:11:42.787Z,16.93
2019-05-30T10:21:49.062Z,17.03
2019-05-30T10:31:53.376Z,17.15
2019-05-30T10:41:58.175Z,17.52
2019-05-30T10:52:02.892Z,17.58
2019-05-30T11:02:07.609Z,17.21
2019-05-30T11:12:11.924Z,17.51
2019-05-30T11:22:16.734Z,17.84
2019-05-30T11:32:21.069Z,17.81
2019-05-30T11:42:26.770Z,17.71
2019-05-30T11:52:31.380Z,18.10
2019-05-30T12:02:35.706Z,18.43
2019-05-30T12:12:42.647Z,18.77
2019-05-30T12:22:47.306Z,19.06
2019-05-30T12:32:52.423Z,18.92
2019-05-30T12:43:00.739Z,19.18
2019-05-30T12:53:05.917Z,19.70
2019-05-30T13:03:10.799Z,20.30
2019-05-30T13:13:15.252Z,20.13
2019-05-30T13:23:19.906Z,19.75
2019-05-30T13:33:24.282Z,19.10
2019-05-30T13:43:28.624Z,18.82
2019-05-30T13:53:33.665Z,19.55
2019-05-30T14:03:38.006Z,19.64
2019-05-30T14:13:42.411Z,19.29
2019-05-30T14:23:46.785Z,20.66
2019-05-30T14:33:51.466Z,21.33
2019-05-30T14:43:57.247Z,21.64
2019-05-30T14:54:01.813Z,20.53
2019-05-30T15:04:07.124Z,19.37
2019-05-30T15:14:12.838Z,18.75
2019-05-30T15:24:17.698Z,18.65
2019-05-30T15:34:22.301Z,18.79
2019-05-30T15:44:27.067Z,18.95
2019-05-30T15:54:32.365Z,19.07
2019-05-30T16:04:36.689Z,19.06
2019-05-30T16:14:41.174Z,19.11
2019-05-30T16:24:45.838Z,18.77
2019-05-30T16:34:52.108Z,18.68
2019-05-30T16:44:56.800Z,18.76
2019-05-30T16:55:02.151Z,19.11
2019-05-30T17:05:07.878Z,18.87
2019-05-30T17:15:13.628Z,18.49
2019-05-30T17:25:19.106Z,18.25
2019-05-30T17:35:24.492Z,18.04
2019-05-30T17:45:29.497Z,17.82
2019-05-30T17:55:34.398Z,17.49
2019-05-30T18:05:39.229Z,17.20
2019-05-30T18:15:44.038Z,16.98
2019-05-30T18:25:48.668Z,16.74
2019-05-30T18:35:54.085Z,16.46
2019-05-30T18:46:01.415Z,16.19
2019-05-30T18:56:07.754Z,15.93
2019-05-30T19:06:19.864Z,15.69
2019-05-30T19:16:26.230Z,15.48
2019-05-30T19:26:32.437Z,15.32
2019-05-30T19:36:37.968Z,15.22
2019-05-30T19:46:42.791Z,15.12
2019-05-30T19:56:50.518Z,14.98
2019-05-30T20:06:55.888Z,14.94
2019-05-30T20:17:00.580Z,14.90
2019-05-30T20:27:05.367Z,14.86
2019-05-30T20:37:09.680Z,14.82
2019-05-30T20:47:15.192Z,14.79
2019-05-30T20:57:20.675Z,14.74
2019-05-30T21:07:25.265Z,14.71
2019-05-30T21:17:33.489Z,14.64
2019-05-30T21:27:38.999Z,14.62
2019-05-30T21:37:45.724Z,14.66
2019-05-30T21:47:50.687Z,14.74
2019-05-30T21:57:55.212Z,14.71
2019-05-30T22:08:00.160Z,14.74
2019-05-30T22:18:04.557Z,14.67
2019-05-30T22:28:09.429Z,14.61
2019-05-30T22:38:13.780Z,14.46
2019-05-30T22:48:18.394Z,14.35
2019-05-30T22:58:23.383Z,14.18
2019-05-30T23:08:28.897Z,14.03
2019-05-30T23:18:35.217Z,13.89
2019-05-30T23:28:39.492Z,13.81
2019-05-30T23:38:44.281Z,13.75
2019-05-30T23:48:49.486Z,13.74
2019-05-30T23:58:54.996Z,13.72
